MSC Jemima — 3EAE3 — position and weather

sailwx.info

Track history (hours):
 
Tides and Currents Weather Stations Pressure Air Temp Water Temp Dewpoint Dewpoint Depression Visibility Wind Speed Wind Dir Waves Ship Positions

MSC Jemima

Last reported at 2017-Dec-15 10:35 UTC. Time now 2017-Dec-15 23:46 UTC.
Position N 37°53' E 024°32'.

Length 202 m; draft 10.9 m.

Type: Ship. MMSI: 352138000.

Date/timePositionNaut miles runAvg speedWind from/ knotsBaromVisibWave heightAir tempDewpointWater temp
2017-Dec-15 10:35N 37°53' E 024°32'112.1
2017-Dec-15 10:30N 37°53' E 024°31'1312.3
2017-Dec-15 09:28N 37°45' E 024°19'712.0
2017-Dec-15 08:52N 37°40' E 024°12'411.9
2017-Dec-15 08:30N 37°37' E 024°08'611.6
2017-Dec-15 08:00N 37°36' E 024°01'1112.0
2017-Dec-15 07:03N 37°37' E 023°47'111.9
2017-Dec-15 06:57N 37°37' E 023°45'511.4
2017-Dec-15 06:29N 37°42' E 023°41'612.4
2017-Dec-15 06:00N 37°47' E 023°38'611.9
2017-Dec-15 05:30N 37°53' E 023°38'4 8.1
2017-Dec-15 04:58N 37°57' E 023°36'0 0.0
2017-Dec-15 04:28N 37°57' E 023°36'0 0.0
2017-Dec-15 03:58N 37°57' E 023°36'0 0.0
2017-Dec-15 02:28N 37°57' E 023°36'0 0.0
2017-Dec-15 00:58N 37°57' E 023°36'0 0.0
2017-Dec-15 00:28N 37°57' E 023°36'0 0.0
2017-Dec-14 18:28N 37°57' E 023°36'0 0.0
2017-Dec-14 17:58N 37°57' E 023°36'0 0.0
2017-Dec-14 17:28N 37°57' E 023°36'0 0.0
2017-Dec-14 16:58N 37°57' E 023°36'0 0.0
2017-Dec-14 16:28N 37°57' E 023°36'0 0.0
2017-Dec-14 15:58N 37°57' E 023°36'0 0.0
2017-Dec-14 14:58N 37°57' E 023°36'0 0.0
2017-Dec-14 14:28N 37°57' E 023°36'0 0.0
2017-Dec-14 13:58N 37°57' E 023°36'0 0.0
2017-Dec-14 13:28N 37°57' E 023°36'0 0.0
2017-Dec-14 12:58N 37°57' E 023°36'0 0.0
2017-Dec-14 12:28N 37°57' E 023°36'0 0.0
2017-Dec-14 11:58N 37°57' E 023°36'0 0.0
2017-Dec-14 11:28N 37°57' E 023°36'0 0.0
2017-Dec-14 10:58N 37°57' E 023°36'0 0.0
2017-Dec-14 10:28N 37°57' E 023°36'0 0.0
2017-Dec-14 09:58N 37°57' E 023°36'0 0.0
2017-Dec-14 09:28N 37°57' E 023°36'0 0.0
2017-Dec-14 08:58N 37°57' E 023°36'0 0.0
2017-Dec-14 08:28N 37°57' E 023°36'0 0.0
2017-Dec-14 07:58N 37°57' E 023°36'0 0.0
2017-Dec-14 07:28N 37°57' E 023°36'0 0.0
2017-Dec-14 06:55N 37°57' E 023°36'0 0.0
2017-Dec-14 06:28N 37°57' E 023°36'0 0.0
2017-Dec-14 04:01N 37°57' E 023°36'0 0.0
2017-Dec-14 03:55N 37°57' E 023°36'0 0.0
2017-Dec-14 01:52N 37°57' E 023°36'0 0.0
2017-Dec-14 01:28N 37°57' E 023°36'0 0.0
2017-Dec-14 00:58N 37°57' E 023°36'0 0.0
2017-Dec-14 00:08N 37°57' E 023°36'0 0.0
2017-Dec-14 00:00N 37°57' E 023°36'2 4.5
2017-Dec-13 23:31N 37°55' E 023°37'4 8.7
2017-Dec-13 23:00N 37°51' E 023°36'2 3.0
2017-Dec-13 22:30N 37°50' E 023°35'0 0.9
2017-Dec-13 22:00N 37°50' E 023°34'0 0.7
2017-Dec-13 21:30N 37°50' E 023°34'1 1.5
2017-Dec-13 21:00N 37°49' E 023°34'5 9.9
2017-Dec-13 20:30N 37°44' E 023°36'3 2.3
2017-Dec-13 19:18N 37°47' E 023°36'412.3
2017-Dec-13 19:00N 37°51' E 023°36'3 5.3
2017-Dec-13 18:31N 37°51' E 023°40'612.9
2017-Dec-13 18:01N 37°45' E 023°43'612.6
2017-Dec-13 17:30N 37°39' E 023°46'2113.3
2017-Dec-13 15:57N 37°19' E 023°41'613.3
2017-Dec-13 15:30N 37°13' E 023°38'713.3
2017-Dec-13 15:00N 37°08' E 023°33'713.4
2017-Dec-13 14:28N 37°02' E 023°28'37812.5
2017-Dec-12 08:21N 37°56' E 015°37'612.5
2017-Dec-12 07:51N 38°02' E 015°34'511.8
2017-Dec-12 07:23N 38°08' E 015°35'513.7
2017-Dec-12 07:00N 38°13' E 015°36'713.9
2017-Dec-12 06:31N 38°19' E 015°41'611.3
2017-Dec-12 06:00N 38°22' E 015°46'712.2
2017-Dec-12 05:27N 38°27' E 015°53'1 0.0
2017-Dec-11 06:45N 38°27' E 015°54'0 0.0
2017-Dec-11 04:57N 38°27' E 015°54'0 0.0
2017-Dec-11 04:21N 38°27' E 015°54'0 0.0
2017-Dec-11 03:57N 38°27' E 015°54'20 1.5
2017-Dec-10 14:28N 38°12' E 015°37'612.6
2017-Dec-10 13:58N 38°06' E 015°36'712.1
2017-Dec-10 13:21N 37°59' E 015°37'613.1
2017-Dec-10 12:54N 37°53' E 015°40'512.6
2017-Dec-10 12:29N 37°52' E 015°46'  
2017-Dec-07 05:28N 37°56' E 015°36'1019.0
2017-Dec-07 04:56N 38°06' E 015°35'818.1
2017-Dec-07 04:30N 38°14' E 015°36'612.5
2017-Dec-07 04:00N 38°19' E 015°42'5 9.7
2017-Dec-07 03:30N 38°22' E 015°46'5 9.3
2017-Dec-07 02:58N 38°26' E 015°51'  
Track history (hours):
 
Tides and Currents Weather Stations Pressure Air Temp Water Temp Dewpoint Dewpoint Depression Visibility Wind Speed Wind Dir Waves Ship Positions

MSC Jemima

Last reported at 2017-Dec-15 10:35 UTC. Time now 2017-Dec-15 23:46 UTC.
Position N 37°53' E 024°32'.

Length 202 m; draft 10.9 m.

Type: Ship. MMSI: 352138000.

Date/timePositionNaut miles runAvg speedWind from/ knotsBaromVisibWave heightAir tempDewpointWater temp
2017-Dec-15 10:35N 37°53' E 024°32'112.1
2017-Dec-15 10:30N 37°53' E 024°31'1312.3
2017-Dec-15 09:28N 37°45' E 024°19'712.0
2017-Dec-15 08:52N 37°40' E 024°12'411.9
2017-Dec-15 08:30N 37°37' E 024°08'611.6
2017-Dec-15 08:00N 37°36' E 024°01'1112.0
2017-Dec-15 07:03N 37°37' E 023°47'111.9
2017-Dec-15 06:57N 37°37' E 023°45'511.4
2017-Dec-15 06:29N 37°42' E 023°41'612.4
2017-Dec-15 06:00N 37°47' E 023°38'611.9
2017-Dec-15 05:30N 37°53' E 023°38'4 8.1
2017-Dec-15 04:58N 37°57' E 023°36'0 0.0
2017-Dec-15 04:28N 37°57' E 023°36'0 0.0
2017-Dec-15 03:58N 37°57' E 023°36'0 0.0
2017-Dec-15 02:28N 37°57' E 023°36'0 0.0
2017-Dec-15 00:58N 37°57' E 023°36'0 0.0
2017-Dec-15 00:28N 37°57' E 023°36'0 0.0
2017-Dec-14 18:28N 37°57' E 023°36'0 0.0
2017-Dec-14 17:58N 37°57' E 023°36'0 0.0
2017-Dec-14 17:28N 37°57' E 023°36'0 0.0
2017-Dec-14 16:58N 37°57' E 023°36'0 0.0
2017-Dec-14 16:28N 37°57' E 023°36'0 0.0
2017-Dec-14 15:58N 37°57' E 023°36'0 0.0
2017-Dec-14 14:58N 37°57' E 023°36'0 0.0
2017-Dec-14 14:28N 37°57' E 023°36'0 0.0
2017-Dec-14 13:58N 37°57' E 023°36'0 0.0
2017-Dec-14 13:28N 37°57' E 023°36'0 0.0
2017-Dec-14 12:58N 37°57' E 023°36'0 0.0
2017-Dec-14 12:28N 37°57' E 023°36'0 0.0
2017-Dec-14 11:58N 37°57' E 023°36'0 0.0
2017-Dec-14 11:28N 37°57' E 023°36'0 0.0
2017-Dec-14 10:58N 37°57' E 023°36'0 0.0
2017-Dec-14 10:28N 37°57' E 023°36'0 0.0
2017-Dec-14 09:58N 37°57' E 023°36'0 0.0
2017-Dec-14 09:28N 37°57' E 023°36'0 0.0
2017-Dec-14 08:58N 37°57' E 023°36'0 0.0
2017-Dec-14 08:28N 37°57' E 023°36'0 0.0
2017-Dec-14 07:58N 37°57' E 023°36'0 0.0
2017-Dec-14 07:28N 37°57' E 023°36'0 0.0
2017-Dec-14 06:55N 37°57' E 023°36'0 0.0
2017-Dec-14 06:28N 37°57' E 023°36'0 0.0
2017-Dec-14 04:01N 37°57' E 023°36'0 0.0
2017-Dec-14 03:55N 37°57' E 023°36'0 0.0
2017-Dec-14 01:52N 37°57' E 023°36'0 0.0
2017-Dec-14 01:28N 37°57' E 023°36'0 0.0
2017-Dec-14 00:58N 37°57' E 023°36'0 0.0
2017-Dec-14 00:08N 37°57' E 023°36'0 0.0
2017-Dec-14 00:00N 37°57' E 023°36'2 4.5
2017-Dec-13 23:31N 37°55' E 023°37'4 8.7
2017-Dec-13 23:00N 37°51' E 023°36'2 3.0
2017-Dec-13 22:30N 37°50' E 023°35'0 0.9
2017-Dec-13 22:00N 37°50' E 023°34'0 0.7
2017-Dec-13 21:30N 37°50' E 023°34'1 1.5
2017-Dec-13 21:00N 37°49' E 023°34'5 9.9
2017-Dec-13 20:30N 37°44' E 023°36'3 2.3
2017-Dec-13 19:18N 37°47' E 023°36'412.3
2017-Dec-13 19:00N 37°51' E 023°36'3 5.3
2017-Dec-13 18:31N 37°51' E 023°40'612.9
2017-Dec-13 18:01N 37°45' E 023°43'612.6
2017-Dec-13 17:30N 37°39' E 023°46'2113.3
2017-Dec-13 15:57N 37°19' E 023°41'613.3
2017-Dec-13 15:30N 37°13' E 023°38'713.3
2017-Dec-13 15:00N 37°08' E 023°33'713.4
2017-Dec-13 14:28N 37°02' E 023°28'37812.5
2017-Dec-12 08:21N 37°56' E 015°37'612.5
2017-Dec-12 07:51N 38°02' E 015°34'511.8
2017-Dec-12 07:23N 38°08' E 015°35'513.7
2017-Dec-12 07:00N 38°13' E 015°36'713.9
2017-Dec-12 06:31N 38°19' E 015°41'611.3
2017-Dec-12 06:00N 38°22' E 015°46'712.2
2017-Dec-12 05:27N 38°27' E 015°53'1 0.0
2017-Dec-11 06:45N 38°27' E 015°54'0 0.0
2017-Dec-11 04:57N 38°27' E 015°54'0 0.0
2017-Dec-11 04:21N 38°27' E 015°54'0 0.0
2017-Dec-11 03:57N 38°27' E 015°54'20 1.5
2017-Dec-10 14:28N 38°12' E 015°37'612.6
2017-Dec-10 13:58N 38°06' E 015°36'712.1
2017-Dec-10 13:21N 37°59' E 015°37'613.1
2017-Dec-10 12:54N 37°53' E 015°40'512.6
2017-Dec-10 12:29N 37°52' E 015°46'  
2017-Dec-07 05:28N 37°56' E 015°36'1019.0
2017-Dec-07 04:56N 38°06' E 015°35'818.1
2017-Dec-07 04:30N 38°14' E 015°36'612.5
2017-Dec-07 04:00N 38°19' E 015°42'5 9.7
2017-Dec-07 03:30N 38°22' E 015°46'5 9.3
2017-Dec-07 02:58N 38°26' E 015°51'  

Dump ship's entire track history